Time;durP1;ratioP1;P1;durP2;ratioP2;P2;SDS_P1;SDS_P2;PMS_P1;PMS_P2;Temp;Humidity;BMP_temperature;BMP_pressure;BME280_temperature;BME280_humidity;BME280_pressure;Samples;Min_cycle;Max_cycle;Signal;HPM_P1;HPM_P2
2023/03/08 00:01:40;;;;;;;7.18;2.85;;;;;;;12.85;56.16;99980.31;4938412;28;20073;-79
2023/03/08 00:04:09;;;;;;;7.32;2.80;;;;;;;12.73;55.67;99972.63;4907251;28;20125;-77
2023/03/08 00:06:41;;;;;;;3.20;2.13;;;;;;;12.80;55.93;99975.47;4911912;29;20052;-78
2023/03/08 00:09:13;;;;;;;;;;;;;;;12.29;56.39;99911.69;4919431;28;20043;-79
2023/03/08 00:11:57;;;;;;;4.27;2.17;;;;;;;12.72;56.42;99964.78;4894513;29;20352;-80
2023/03/08 00:14:29;;;;;;;3.83;2.17;;;;;;;12.86;55.41;99966.78;4894737;29;20675;-77
2023/03/08 00:17:27;;;;;;;4.32;2.30;;;;;;;12.80;55.84;99972.81;4854740;28;20054;-79
2023/03/08 00:20:14;;;;;;;6.60;2.40;;;;;;;12.79;56.14;99976.44;4910309;28;20062;-79
2023/03/08 00:22:53;;;;;;;6.30;2.40;;;;;;;12.72;55.99;99980.78;4916020;28;20137;-79
2023/03/08 00:25:34;;;;;;;3.20;2.08;;;;;;;12.57;56.21;99968.13;4925144;28;20117;-76
2023/03/08 00:28:16;;;;;;;5.90;2.50;;;;;;;12.25;56.39;99920.16;4900164;28;20113;-79
2023/03/08 00:31:11;;;;;;;4.75;2.30;;;;;;;12.58;56.17;99963.63;4879631;28;20192;-80
2023/03/08 00:33:41;;;;;;;5.50;1.98;;;;;;;12.86;56.25;99990.78;4917019;28;20394;-82
2023/03/08 00:36:23;;;;;;;10.40;2.30;;;;;;;12.78;56.21;99980.13;4946771;28;20141;-79
2023/03/08 00:39:18;;;;;;;4.68;2.10;;;;;;;12.75;56.16;99975.97;4936923;28;20073;-80
2023/03/08 00:41:56;;;;;;;4.25;2.28;;;;;;;12.72;56.62;99991.44;4920727;28;20050;-81
2023/03/08 00:44:37;;;;;;;2.80;2.05;;;;;;;12.67;56.57;99981.28;4904596;28;20064;-79
2023/03/08 00:47:16;;;;;;;5.20;2.42;;;;;;;12.72;56.63;99986.09;4934583;28;20046;-78
2023/03/08 00:49:58;;;;;;;3.78;2.28;;;;;;;12.79;56.42;99971.13;4920772;28;20659;-78
2023/03/08 00:52:35;;;;;;;4.43;2.20;;;;;;;12.86;56.16;99988.09;4897051;28;20282;-78
2023/03/08 00:55:07;;;;;;;4.68;2.20;;;;;;;12.85;55.89;99970.47;4921142;28;20316;-80
2023/03/08 00:58:06;;;;;;;3.78;2.20;;;;;;;12.78;56.29;99980.13;4909384;28;20289;-81
2023/03/08 01:00:38;;;;;;;3.03;2.10;;;;;;;12.81;56.27;99977.94;4868664;29;20274;-80
2023/03/08 01:03:07;;;;;;;3.65;1.80;;;;;;;12.71;56.20;99955.16;4918292;28;20082;-79
2023/03/08 01:05:45;;;;;;;3.53;2.15;;;;;;;12.72;56.67;99944.34;4857083;28;20051;-82
2023/03/08 01:08:21;;;;;;;4.93;2.15;;;;;;;12.96;55.83;99967.47;4873925;29;20174;-81
2023/03/08 01:11:01;;;;;;;2.95;2.22;;;;;;;12.94;56.22;99979.31;4866448;29;20058;-79
2023/03/08 01:13:40;;;;;;;4.53;1.95;;;;;;;12.88;56.01;99970.13;4872392;29;20141;-80
2023/03/08 01:16:59;;;;;;;7.60;2.35;;;;;;;13.01;56.63;99978.47;4860549;28;20288;-79
2023/03/08 01:19:26;;;;;;;3.17;2.03;;;;;;;12.96;55.79;99962.16;4848953;29;20498;-80
2023/03/08 01:21:53;;;;;;;2.83;2.40;;;;;;;13.11;56.09;99980.13;4860085;29;20143;-81
2023/03/08 01:24:22;;;;;;;4.60;2.10;;;;;;;12.73;55.93;99899.91;4884975;29;20051;-78
2023/03/08 01:26:54;;;;;;;2.78;2.28;;;;;;;12.70;56.11;99916.22;4884494;29;20135;-81
2023/03/08 01:29:21;;;;;;;2.08;1.80;;;;;;;12.64;56.39;99919.53;4912515;28;20374;-80
2023/03/08 01:31:53;;;;;;;5.80;2.72;;;;;;;12.79;56.67;99960.47;4903986;28;20520;-80
2023/03/08 01:34:28;;;;;;;3.60;2.28;;;;;;;12.52;56.78;99927.84;4926329;28;20115;-79
2023/03/08 01:37:10;;;;;;;4.75;2.00;;;;;;;12.59;57.00;99944.81;4878080;28;20624;-79
2023/03/08 01:39:50;;;;;;;6.88;2.53;;;;;;;12.89;56.79;99982.47;4856921;28;20296;-79
2023/03/08 01:42:22;;;;;;;2.72;2.00;;;;;;;12.77;56.82;99957.16;4864744;28;20212;-79
2023/03/08 01:44:55;;;;;;;3.10;1.92;;;;;;;12.83;56.83;99964.47;4905323;28;20311;-80
2023/03/08 01:47:37;;;;;;;4.63;2.35;;;;;;;12.84;57.07;99974.16;4912307;28;20062;-76
2023/03/08 01:50:20;;;;;;;2.63;1.88;;;;;;;12.73;57.11;99966.47;4943103;28;20097;-76
2023/03/08 01:52:50;;;;;;;3.83;1.70;;;;;;;12.45;57.30;99929.53;4919851;28;20777;-77
2023/03/08 01:55:21;;;;;;;4.88;2.00;;;;;;;12.71;57.49;99990.59;4896531;29;20055;-79
2023/03/08 01:58:00;;;;;;;2.63;1.83;;;;;;;12.43;57.59;99949.28;4892245;28;20240;-78
2023/03/08 02:00:36;;;;;;;5.10;1.65;;;;;;;12.38;57.55;99929.34;4896109;29;20126;-80
2023/03/08 02:03:07;;;;;;;2.50;1.90;;;;;;;12.72;57.24;99988.75;4915797;28;20436;-79
2023/03/08 02:05:42;;;;;;;2.50;1.73;;;;;;;12.77;57.39;99983.81;4936211;28;20489;-80
2023/03/08 02:08:17;;;;;;;2.30;1.58;;;;;;;12.79;57.40;99973.78;4911550;28;20800;-79
2023/03/08 02:10:56;;;;;;;2.35;1.52;;;;;;;12.85;57.40;99997.09;4914571;28;20050;-78
2023/03/08 02:13:44;;;;;;;1.80;1.58;;;;;;;12.80;57.28;99978.97;4910117;28;20475;-80
2023/03/08 02:16:18;;;;;;;2.75;1.13;;;;;;;12.71;57.44;99974.63;4910949;28;20046;-81
2023/03/08 02:18:59;;;;;;;2.17;1.80;;;;;;;12.79;57.76;99992.44;4934219;28;20046;-81
2023/03/08 02:21:28;;;;;;;3.63;1.60;;;;;;;12.94;57.12;100000.63;4924309;28;20368;-81
2023/03/08 02:24:25;;;;;;;1.98;1.40;;;;;;;12.91;57.34;99985.78;4946692;28;20058;-80
2023/03/08 02:27:13;;;;;;;2.70;1.40;;;;;;;12.69;58.08;99967.78;4941210;28;20046;-79
2023/03/08 02:29:42;;;;;;;2.35;1.48;;;;;;;12.31;57.57;99892.91;4894524;28;20046;-80
2023/03/08 02:32:13;;;;;;;1.85;1.10;;;;;;;12.67;58.08;99977.78;4936728;28;20245;-80
2023/03/08 02:34:45;;;;;;;2.90;1.77;;;;;;;12.64;57.74;99967.47;4925835;28;20105;-81
2023/03/08 02:37:26;;;;;;;2.97;1.88;;;;;;;12.61;57.96;99969.44;4922825;28;20363;-81
2023/03/08 02:40:03;;;;;;;1.95;1.50;;;;;;;12.62;58.56;99980.94;4933472;28;20255;-79
2023/03/08 02:42:36;;;;;;;1.67;1.13;;;;;;;12.59;58.39;99975.94;4930005;28;20493;-80
2023/03/08 02:45:11;;;;;;;2.70;1.23;;;;;;;12.62;58.46;99980.94;4915304;28;20493;-80
2023/03/08 02:47:39;;;;;;;1.63;1.42;;;;;;;12.63;58.47;99982.63;4917611;28;20373;-81
2023/03/08 02:50:09;;;;;;;1.35;1.25;;;;;;;11.45;58.74;99795.63;4939718;28;20217;-80
2023/03/08 02:52:41;;;;;;;1.80;1.60;;;;;;;12.52;59.04;99985.59;4933112;28;20406;-80
2023/03/08 02:55:13;;;;;;;3.92;1.40;;;;;;;12.50;59.11;99975.13;4918101;28;20082;-80
2023/03/08 02:58:10;;;;;;;1.75;1.52;;;;;;;12.48;59.14;99974.44;4876174;28;20212;-80
2023/03/08 03:00:40;;;;;;;2.33;1.27;;;;;;;12.50;58.85;99964.47;4910133;29;20151;-81
2023/03/08 03:03:09;;;;;;;2.63;1.63;;;;;;;12.45;59.39;99976.59;4929658;28;20493;-76
2023/03/08 03:05:44;;;;;;;3.10;1.85;;;;;;;12.37;59.38;99966.75;4933307;28;20073;-81
2023/03/08 03:08:12;;;;;;;1.40;1.30;;;;;;;12.24;60.05;99961.09;4933014;28;20047;-81
2023/03/08 03:10:40;;;;;;;3.00;1.80;;;;;;;12.12;60.25;99947.25;4922053;29;20232;-80
2023/03/08 03:13:09;;;;;;;1.60;1.40;;;;;;;12.20;60.40;99971.22;4942555;28;20051;-79
2023/03/08 03:15:39;;;;;;;1.92;1.42;;;;;;;12.16;60.26;99968.06;4944386;28;20090;-79
2023/03/08 03:18:30;;;;;;;2.03;1.50;;;;;;;12.28;59.69;99941.13;4947981;28;20038;-79
2023/03/08 03:21:19;;;;;;;1.85;1.58;;;;;;;12.37;59.69;99956.94;4948786;28;20142;-79
2023/03/08 03:23:47;;;;;;;;;;;;;;;12.44;59.60;99961.63;4939453;28;20802;-79
2023/03/08 03:26:24;;;;;;;1.40;1.30;;;;;;;12.39;60.10;99965.59;4958241;28;19922;-81
2023/03/08 03:28:56;;;;;;;2.90;2.10;;;;;;;12.10;60.39;99939.41;4960977;28;20576;-78
2023/03/08 03:31:23;;;;;;;;;;;;;;;12.27;60.39;99976.72;4950452;28;20352;-78
2023/03/08 03:33:55;;;;;;;1.95;1.48;;;;;;;12.23;60.39;99967.38;4966072;28;19921;-79
2023/03/08 03:36:33;;;;;;;1.73;1.25;;;;;;;12.38;60.08;99974.59;4947520;28;20424;-79
2023/03/08 03:39:16;;;;;;;2.15;1.65;;;;;;;12.40;59.86;99975.25;4959654;28;20058;-80
2023/03/08 03:41:49;;;;;;;2.40;1.38;;;;;;;12.30;60.14;99955.94;4974004;28;20059;-78
2023/03/08 03:44:16;;;;;;;2.40;1.60;;;;;;;12.35;60.07;99979.41;4976359;28;20054;-79
2023/03/08 03:46:42;;;;;;;1.48;1.33;;;;;;;12.41;59.92;99981.41;4963312;28;20545;-79
2023/03/08 03:49:09;;;;;;;2.03;1.30;;;;;;;12.21;60.46;99961.41;4973028;28;20050;-80
2023/03/08 03:51:42;;;;;;;3.08;1.80;;;;;;;12.31;60.38;99975.41;4971646;28;20057;-80
2023/03/08 03:54:12;;;;;;;2.90;1.60;;;;;;;12.28;60.19;99955.28;4947126;28;20051;-80
2023/03/08 03:56:47;;;;;;;5.85;1.30;;;;;;;12.44;60.11;99980.25;4932045;28;20051;-80
2023/03/08 03:59:16;;;;;;;3.25;1.60;;;;;;;12.49;60.22;99988.59;4935934;28;20039;-78
2023/03/08 04:01:43;;;;;;;2.00;1.40;;;;;;;12.46;60.13;100003.06;4964247;28;20054;-81
2023/03/08 04:04:15;;;;;;;4.38;1.52;;;;;;;12.52;59.96;99996.22;4962968;28;20522;-80
2023/03/08 04:06:46;;;;;;;1.50;1.40;;;;;;;12.47;60.29;100003.88;4948250;28;20488;-79
2023/03/08 04:09:18;;;;;;;2.72;1.50;;;;;;;12.39;60.23;100000.19;4961947;28;20461;-80
2023/03/08 04:11:47;;;;;;;;;;;;;;;12.40;60.47;100011.69;4960250;28;20520;-79
2023/03/08 04:14:30;;;;;;;2.00;1.60;;;;;;;12.25;60.61;100000.00;4944928;28;19921;-80
2023/03/08 04:16:59;;;;;;;2.08;1.77;;;;;;;12.46;60.05;100008.38;4951772;28;20294;-79
2023/03/08 04:19:26;;;;;;;3.15;1.45;;;;;;;12.33;60.45;99997.34;4947061;28;20050;-78
2023/03/08 04:22:03;;;;;;;4.82;1.80;;;;;;;12.33;60.47;99984.03;4937444;28;20058;-80
2023/03/08 04:24:33;;;;;;;5.53;1.52;;;;;;;12.34;60.18;99997.19;4950426;28;20385;-78
2023/03/08 04:27:02;;;;;;;2.22;1.70;;;;;;;12.39;60.41;100013.50;4947684;28;20077;-78
2023/03/08 04:29:32;;;;;;;3.42;1.40;;;;;;;12.17;61.15;99996.31;4957679;28;20909;-79
2023/03/08 04:31:59;;;;;;;4.30;1.83;;;;;;;12.18;61.38;100008.66;4953137;28;20077;-78
2023/03/08 04:34:28;;;;;;;3.17;1.50;;;;;;;12.07;61.63;100003.59;4955641;28;20054;-81
2023/03/08 04:36:55;;;;;;;1.50;1.40;;;;;;;11.80;61.34;99954.09;4964241;28;20054;-77
2023/03/08 04:39:26;;;;;;;3.08;1.80;;;;;;;11.95;62.07;99989.75;4960629;28;20554;-82
2023/03/08 04:41:59;;;;;;;2.65;1.65;;;;;;;12.09;62.00;100000.78;4964187;28;20492;-80
2023/03/08 04:44:25;;;;;;;2.63;1.65;;;;;;;12.22;61.63;100010.97;4964356;28;20670;-79
2023/03/08 04:46:52;;;;;;;1.70;1.58;;;;;;;12.08;61.15;99977.81;4959278;28;20385;-78
2023/03/08 04:49:28;;;;;;;2.58;1.80;;;;;;;12.03;61.51;99996.09;4961681;28;20111;-81
2023/03/08 04:51:55;;;;;;;3.38;1.60;;;;;;;11.77;61.40;99960.56;4963949;28;20163;-78
2023/03/08 04:54:31;;;;;;;3.65;1.70;;;;;;;12.06;61.63;100017.06;4930866;28;20059;-80
2023/03/08 04:57:05;;;;;;;2.10;1.55;;;;;;;11.79;61.83;99976.34;4928824;28;20070;-80
2023/03/08 04:59:42;;;;;;;2.88;1.60;;;;;;;11.86;62.59;99996.00;4938069;28;20452;-79
2023/03/08 05:02:09;;;;;;;2.45;1.63;;;;;;;12.01;62.38;100028.19;4955227;28;21425;-80
2023/03/08 05:04:42;;;;;;;3.38;1.65;;;;;;;11.83;62.57;100012.28;4945616;28;20062;-78
2023/03/08 05:07:30;;;;;;;2.17;1.48;;;;;;;11.88;62.57;100019.81;4945698;28;20050;-77
2023/03/08 05:10:01;;;;;;;2.10;1.27;;;;;;;11.41;62.52;99935.97;4944308;28;20043;-77
2023/03/08 05:12:28;;;;;;;3.38;1.98;;;;;;;12.11;62.28;100036.88;4932388;28;20050;-78
2023/03/08 05:14:54;;;;;;;2.00;1.80;;;;;;;12.05;61.86;100026.88;4944274;28;20464;-77
2023/03/08 05:17:24;;;;;;;7.07;2.00;;;;;;;12.10;62.26;100039.69;4939325;28;20038;-76
2023/03/08 05:19:54;;;;;;;2.20;1.92;;;;;;;11.90;62.56;100031.13;4956893;28;20334;-79
2023/03/08 05:22:26;;;;;;;4.55;2.15;;;;;;;11.96;62.52;100035.81;4949661;28;20578;-80
2023/03/08 05:24:56;;;;;;;3.67;1.73;;;;;;;11.84;62.86;100026.41;4963352;28;20257;-77
2023/03/08 05:27:32;;;;;;;4.95;2.03;;;;;;;11.68;62.86;100009.38;4965070;28;20081;-76
2023/03/08 05:30:03;;;;;;;2.63;1.85;;;;;;;11.61;63.74;100013.66;4955137;28;20054;-78
2023/03/08 05:32:36;;;;;;;1.50;1.40;;;;;;;11.54;64.15;100016.09;4942224;28;20497;-79
2023/03/08 05:35:15;;;;;;;3.63;1.60;;;;;;;11.07;64.00;99939.41;4927106;28;20104;-80
2023/03/08 05:37:45;;;;;;;2.25;1.80;;;;;;;11.57;63.89;100009.63;4953837;28;20583;-76
2023/03/08 05:40:26;;;;;;;3.45;2.00;;;;;;;11.69;63.86;100019.00;4959727;28;20339;-76
2023/03/08 05:42:54;;;;;;;7.20;2.33;;;;;;;11.58;63.75;100002.50;4960758;28;20803;-78
2023/03/08 05:45:28;;;;;;;2.45;1.50;;;;;;;11.45;64.14;100002.91;4950498;28;20101;-79
2023/03/08 05:47:56;;;;;;;10.75;9.95;;;;;;;11.31;64.36;99991.88;4964183;28;20164;-77
2023/03/08 05:50:44;;;;;;;7.43;4.03;;;;;;;11.42;65.37;100027.16;4968416;28;20570;-80
2023/03/08 05:53:21;;;;;;;6.10;2.80;;;;;;;11.50;64.62;100033.34;4945260;28;20059;-81
2023/03/08 05:55:54;;;;;;;9.60;2.63;;;;;;;11.44;64.58;100014.56;4925854;28;20058;-77
2023/03/08 05:58:25;;;;;;;5.93;1.98;;;;;;;11.14;64.93;99958.25;4941884;28;20042;-80
2023/03/08 06:00:58;;;;;;;10.05;2.17;;;;;;;11.56;64.68;100018.63;4962062;28;20146;-79
2023/03/08 06:03:32;;;;;;;2.13;1.80;;;;;;;11.64;63.96;100017.84;4962468;28;20554;-80
2023/03/08 06:05:59;;;;;;;5.65;2.33;;;;;;;11.79;64.05;100037.50;4960026;28;20145;-81
2023/03/08 06:08:31;;;;;;;4.32;2.65;;;;;;;11.65;64.35;100006.19;4951925;28;20087;-80
2023/03/08 06:11:03;;;;;;;9.88;2.58;;;;;;;11.70;63.53;100023.34;4962141;28;20050;-79
2023/03/08 06:13:33;;;;;;;;;;;;;;;11.43;64.12;99978.31;4967589;28;20485;-79
2023/03/08 06:16:05;;;;;;;12.82;2.08;;;;;;;11.71;63.88;100032.16;4964231;28;20426;-79
2023/03/08 06:18:38;;;;;;;7.82;2.28;;;;;;;11.39;64.14;99963.69;4962003;28;20089;-80
2023/03/08 06:21:27;;;;;;;3.45;1.98;;;;;;;12.02;63.83;100047.66;4962565;28;20320;-79
2023/03/08 06:24:11;;;;;;;5.75;2.13;;;;;;;11.84;64.42;100024.56;4961829;28;20527;-79
2023/03/08 06:26:40;;;;;;;9.73;2.83;;;;;;;11.89;64.16;100026.78;4945647;28;20500;-79
2023/03/08 06:29:07;;;;;;;3.83;2.28;;;;;;;11.98;63.78;100036.47;4947726;28;20368;-77
2023/03/08 06:31:46;;;;;;;10.15;2.38;;;;;;;12.02;63.53;100021.06;4929898;28;20046;-79
2023/03/08 06:34:26;;;;;;;10.52;2.58;;;;;;;12.05;63.31;100024.22;4904148;28;20471;-78
2023/03/08 06:36:55;;;;;;;5.32;1.83;;;;;;;12.25;62.95;100051.38;4923659;28;20047;-78
2023/03/08 06:39:25;;;;;;;8.43;2.10;;;;;;;12.33;62.97;100050.59;4935673;28;20218;-77
2023/03/08 06:42:08;;;;;;;3.42;1.88;;;;;;;12.28;62.92;100048.44;4940648;28;20256;-79
2023/03/08 06:44:35;;;;;;;9.25;2.50;;;;;;;12.18;62.90;100021.09;4926239;28;20097;-79
2023/03/08 06:47:05;;;;;;;5.65;2.42;;;;;;;11.86;63.12;99974.72;4938728;28;20346;-76
2023/03/08 06:49:33;;;;;;;13.43;2.67;;;;;;;12.11;63.02;100020.94;4912186;28;20492;-79
2023/03/08 06:52:03;;;;;;;6.35;2.22;;;;;;;12.51;62.47;100055.81;4941440;28;20070;-78
2023/03/08 06:54:33;;;;;;;6.82;2.72;;;;;;;12.54;63.05;100068.78;4941528;28;20516;-77
2023/03/08 06:57:00;;;;;;;5.75;2.63;;;;;;;12.28;62.43;100032.47;4927821;28;20054;-77
2023/03/08 06:59:32;;;;;;;5.40;2.45;;;;;;;12.58;62.57;100076.28;4943552;28;20065;-78
2023/03/08 07:02:02;;;;;;;4.95;2.17;;;;;;;12.55;62.33;100060.66;4930750;28;20074;-76
2023/03/08 07:04:38;;;;;;;5.85;2.50;;;;;;;12.46;61.99;100023.53;4917658;29;20441;-79
2023/03/08 07:07:07;;;;;;;4.32;2.50;;;;;;;12.72;61.78;100053.53;4895138;29;20558;-78
2023/03/08 07:09:37;;;;;;;8.57;2.17;;;;;;;12.86;61.08;100081.34;4906478;29;20040;-81
2023/03/08 07:12:07;;;;;;;4.88;2.10;;;;;;;12.06;61.14;99963.84;4920170;29;20114;-79
2023/03/08 07:14:40;;;;;;;13.77;2.58;;;;;;;12.86;61.37;100102.66;4895155;29;20059;-80
2023/03/08 07:17:10;;;;;;;8.63;3.47;;;;;;;12.87;60.96;100098.19;4898248;29;20078;-78
2023/03/08 07:19:43;;;;;;;5.47;2.95;;;;;;;13.03;60.88;100107.03;4909507;28;20380;-77
2023/03/08 07:22:13;;;;;;;7.32;2.15;;;;;;;13.06;60.68;100116.53;4918879;28;20069;-78
2023/03/08 07:24:39;;;;;;;3.97;2.10;;;;;;;13.04;60.48;100114.03;4945036;28;20111;-78
2023/03/08 07:27:11;;;;;;;7.40;2.33;;;;;;;12.96;60.43;100095.38;4926954;28;20050;-79
2023/03/08 07:29:40;;;;;;;5.22;2.63;;;;;;;13.06;60.40;100113.88;4945007;28;20050;-80
2023/03/08 07:32:07;;;;;;;8.07;2.70;;;;;;;13.22;59.14;100108.53;4950689;28;20489;-79
2023/03/08 07:34:39;;;;;;;4.47;2.28;;;;;;;13.15;59.45;100088.03;4934208;28;20518;-79
2023/03/08 07:37:11;;;;;;;3.70;2.53;;;;;;;13.16;59.50;100095.06;4925912;28;20582;-78
2023/03/08 07:39:38;;;;;;;5.95;2.15;;;;;;;13.20;59.20;100091.03;4927623;28;20055;-78
2023/03/08 07:42:05;;;;;;;7.60;2.28;;;;;;;13.38;59.08;100129.09;4925930;29;20482;-79
2023/03/08 07:44:32;;;;;;;2.60;1.92;;;;;;;13.39;58.47;100080.06;4924474;29;20063;-78
2023/03/08 07:47:10;;;;;;;3.90;2.03;;;;;;;13.86;57.70;100124.72;4930320;29;20102;-77
2023/03/08 07:49:37;;;;;;;4.43;1.90;;;;;;;13.68;57.91;100121.41;4918078;28;20050;-76
2023/03/08 07:52:08;;;;;;;3.63;2.47;;;;;;;13.72;57.99;100133.41;4934970;28;20148;-77
2023/03/08 07:54:36;;;;;;;3.78;2.53;;;;;;;13.60;58.01;100114.25;4912830;29;20455;-77
2023/03/08 07:57:10;;;;;;;5.53;2.47;;;;;;;13.84;57.39;100132.06;4881588;29;20047;-78
2023/03/08 07:59:42;;;;;;;8.98;3.00;;;;;;;13.80;57.60;100135.22;4925856;28;20621;-78
2023/03/08 08:02:13;;;;;;;4.00;2.40;;;;;;;13.74;57.70;100126.06;4925406;28;20046;-77
2023/03/08 08:04:44;;;;;;;6.28;2.28;;;;;;;13.78;57.53;100111.38;4936389;28;20117;-77
2023/03/08 08:07:13;;;;;;;5.25;2.17;;;;;;;13.81;57.24;100124.41;4931499;28;20188;-78
2023/03/08 08:09:40;;;;;;;7.18;2.55;;;;;;;13.76;57.28;100105.41;4934226;28;20378;-79
2023/03/08 08:12:14;;;;;;;6.97;2.20;;;;;;;13.97;56.94;100125.38;4929399;28;20047;-78
2023/03/08 08:14:40;;;;;;;3.90;1.90;;;;;;;13.80;56.83;100104.03;4940866;28;20436;-76
2023/03/08 08:17:07;;;;;;;4.10;2.30;;;;;;;14.03;56.45;100141.53;4919477;28;20094;-80
2023/03/08 08:19:36;;;;;;;5.80;2.33;;;;;;;13.62;56.55;100066.06;4937950;28;20176;-79
2023/03/08 08:22:05;;;;;;;6.28;2.42;;;;;;;13.88;56.86;100096.03;4935397;28;20042;-77
2023/03/08 08:24:32;;;;;;;3.47;2.20;;;;;;;14.12;56.14;100112.97;4944382;28;20326;-80
2023/03/08 08:26:59;;;;;;;5.95;2.25;;;;;;;14.33;55.77;100131.09;4932963;28;20236;-80
2023/03/08 08:29:28;;;;;;;8.77;2.50;;;;;;;14.22;55.72;100123.44;4950046;28;20400;-79
2023/03/08 08:31:55;;;;;;;5.30;2.15;;;;;;;14.23;55.01;100117.94;4954938;28;20283;-77
2023/03/08 08:34:28;;;;;;;5.45;2.20;;;;;;;14.29;55.04;100125.25;4922319;28;20512;-80
2023/03/08 08:36:56;;;;;;;3.65;2.20;;;;;;;14.38;54.51;100120.72;4939961;28;20057;-81
2023/03/08 08:39:23;;;;;;;3.20;1.90;;;;;;;14.38;55.00;100126.06;4918199;28;20413;-76
2023/03/08 08:41:49;;;;;;;2.47;1.90;;;;;;;14.18;55.33;100122.97;4928325;28;20355;-80
2023/03/08 08:44:16;;;;;;;9.68;2.63;;;;;;;14.26;54.90;100136.28;4920526;28;20240;-80
2023/03/08 08:46:47;;;;;;;4.07;2.45;;;;;;;14.48;54.65;100142.72;4927794;28;20473;-79
2023/03/08 08:49:25;;;;;;;6.03;2.15;;;;;;;14.46;54.98;100130.53;4927156;28;20058;-78
2023/03/08 08:51:56;;;;;;;17.13;5.03;;;;;;;14.49;55.81;100152.41;4923493;28;20107;-78
2023/03/08 08:54:32;;;;;;;9.45;3.30;;;;;;;14.08;56.32;100122.34;4930185;28;20105;-80
2023/03/08 08:56:59;;;;;;;9.10;5.03;;;;;;;14.27;57.02;100163.81;4938450;28;20062;-78
2023/03/08 08:59:28;;;;;;;11.45;6.70;;;;;;;14.44;57.54;100183.28;4940566;28;20061;-78
2023/03/08 09:01:55;;;;;;;17.00;7.22;;;;;;;14.47;57.69;100177.63;4955346;28;20460;-77
2023/03/08 09:04:23;;;;;;;14.30;7.18;;;;;;;14.27;57.92;100167.34;4964675;28;20086;-78
2023/03/08 09:06:50;;;;;;;22.85;9.18;;;;;;;14.31;58.98;100160.63;4969992;28;20058;-77
2023/03/08 09:09:19;;;;;;;18.98;10.20;;;;;;;14.46;58.62;100189.31;4921361;28;20159;-78
2023/03/08 09:11:51;;;;;;;24.75;9.27;;;;;;;14.43;58.51;100195.00;4956426;28;20489;-79
2023/03/08 09:14:26;;;;;;;15.25;7.97;;;;;;;14.20;58.81;100153.00;4946781;28;20058;-78
2023/03/08 09:17:04;;;;;;;9.13;5.10;;;;;;;14.28;58.80;100162.81;4946831;28;20046;-77
2023/03/08 09:19:35;;;;;;;13.88;4.55;;;;;;;14.55;58.30;100185.63;4960679;28;20117;-79
2023/03/08 09:22:02;;;;;;;14.00;5.47;;;;;;;14.44;57.13;100164.59;4952730;28;20476;-77
2023/03/08 09:24:34;;;;;;;9.10;5.35;;;;;;;14.54;57.45;100205.34;4971794;28;20389;-79
2023/03/08 09:27:12;;;;;;;7.45;5.05;;;;;;;14.14;57.15;100118.97;4977422;28;20058;-80
2023/03/08 09:29:43;;;;;;;10.18;5.53;;;;;;;14.60;57.10;100183.28;4979054;28;20477;-79
2023/03/08 09:32:09;;;;;;;9.60;5.03;;;;;;;14.62;56.63;100191.97;4959720;28;20496;-81
2023/03/08 09:34:36;;;;;;;13.23;5.43;;;;;;;14.70;56.71;100188.41;4969463;28;20082;-78
2023/03/08 09:37:07;;;;;;;14.90;6.10;;;;;;;14.77;56.85;100172.53;4935423;28;20654;-79
2023/03/08 09:39:33;;;;;;;10.73;6.13;;;;;;;14.78;55.76;100172.34;4939566;28;20301;-78
2023/03/08 09:42:32;;;;;;;10.07;6.20;;;;;;;14.60;56.46;100148.56;4946854;28;20057;-81
2023/03/08 09:45:21;;;;;;;8.82;5.00;;;;;;;14.77;56.40;100162.66;4932699;28;20054;-78
2023/03/08 09:48:03;;;;;;;13.15;6.38;;;;;;;15.02;55.36;100170.56;4924843;28;20058;-79
2023/03/08 09:50:47;;;;;;;13.13;5.75;;;;;;;15.07;55.62;100177.06;4945389;28;20267;-79
2023/03/08 09:53:53;;;;;;;12.30;5.93;;;;;;;15.16;55.48;100177.81;4944376;28;20051;-78
2023/03/08 09:56:34;;;;;;;10.82;5.75;;;;;;;15.17;54.78;100163.47;4902165;28;20688;-77
2023/03/08 09:59:15;;;;;;;10.77;6.72;;;;;;;15.25;54.91;100170.59;4959922;28;20051;-77
2023/03/08 10:02:01;;;;;;;9.50;6.25;;;;;;;14.90;55.01;100116.66;4971390;28;20563;-79
2023/03/08 10:04:49;;;;;;;11.77;5.72;;;;;;;15.32;55.19;100183.06;4933099;28;20793;-78
2023/03/08 10:08:18;;;;;;;11.63;7.23;;;;;;;15.19;54.75;100132.00;4964564;28;20062;-78
2023/03/08 10:11:01;;;;;;;9.15;5.25;;;;;;;14.85;54.73;100065.59;4958536;28;20101;-78
2023/03/08 10:13:51;;;;;;;14.20;6.72;;;;;;;15.75;53.31;100182.59;4937097;28;20043;-81
2023/03/08 10:16:27;;;;;;;10.95;6.90;;;;;;;15.57;53.44;100148.13;4905124;28;20543;-80
2023/03/08 10:19:18;;;;;;;8.90;6.00;;;;;;;15.55;53.14;100134.09;4916793;28;20380;-80
2023/03/08 10:21:50;;;;;;;13.25;6.63;;;;;;;16.09;52.46;100195.50;4903639;28;20062;-79
2023/03/08 10:24:17;;;;;;;9.00;5.32;;;;;;;16.20;51.49;100207.63;4958828;28;20469;-79
2023/03/08 10:26:54;;;;;;;10.27;6.10;;;;;;;15.95;51.78;100175.75;4940319;28;20509;-80
2023/03/08 10:29:29;;;;;;;8.30;5.07;;;;;;;16.21;51.34;100185.19;4937890;28;20279;-80
2023/03/08 10:32:01;;;;;;;12.57;5.70;;;;;;;16.28;51.28;100191.47;4943510;28;20112;-78
2023/03/08 10:34:31;;;;;;;8.18;5.25;;;;;;;16.33;51.27;100189.06;4944357;28;20419;-80
2023/03/08 10:37:05;;;;;;;12.57;6.55;;;;;;;16.47;50.63;100200.00;4946384;28;20134;-79
2023/03/08 10:40:02;;;;;;;5.80;4.32;;;;;;;16.44;51.27;100198.50;4929426;28;20046;-80
2023/03/08 10:42:32;;;;;;;13.48;7.68;;;;;;;16.43;51.16;100186.97;4919070;28;20373;-78
2023/03/08 10:45:15;;;;;;;7.25;5.05;;;;;;;16.45;50.96;100189.44;4944295;28;20055;-79
2023/03/08 10:47:55;;;;;;;6.03;5.05;;;;;;;16.45;50.74;100174.19;4943897;28;20045;-78
2023/03/08 10:50:43;;;;;;;9.50;5.97;;;;;;;16.51;51.16;100179.84;4962864;28;20074;-81
2023/03/08 10:53:21;;;;;;;8.07;4.22;;;;;;;16.51;51.03;100191.41;4954178;28;20285;-78
2023/03/08 10:55:52;;;;;;;9.73;5.38;;;;;;;16.65;50.55;100173.63;4949003;28;20057;-79
2023/03/08 10:58:43;;;;;;;7.45;4.00;;;;;;;15.86;50.48;100028.78;4956923;28;20137;-76
2023/03/08 11:01:26;;;;;;;7.82;5.00;;;;;;;16.80;50.27;100166.44;4935178;28;20520;-79
2023/03/08 11:04:14;;;;;;;15.80;6.65;;;;;;;16.02;50.43;100064.25;4922594;28;20328;-78
2023/03/08 11:06:47;;;;;;;11.50;8.23;;;;;;;16.20;50.85;100076.41;4915303;28;20050;-79
2023/03/08 11:09:33;;;;;;;9.65;5.18;;;;;;;16.86;50.31;100152.28;4923530;28;20427;-78
2023/03/08 11:12:05;;;;;;;8.48;4.57;;;;;;;16.75;50.38;100133.13;4907319;28;20583;-80
2023/03/08 11:14:32;;;;;;;6.60;4.55;;;;;;;17.00;50.03;100141.72;4933984;28;20255;-79
2023/03/08 11:17:18;;;;;;;7.28;5.60;;;;;;;16.81;49.98;100133.25;4928492;28;20047;-80
2023/03/08 11:20:18;;;;;;;7.75;4.63;;;;;;;16.83;50.58;100133.06;4944321;28;20154;-82
2023/03/08 11:22:54;;;;;;;12.10;6.97;;;;;;;16.88;49.85;100138.69;4911041;28;20475;-80
2023/03/08 11:25:43;;;;;;;10.52;5.53;;;;;;;16.58;49.56;100073.59;4934772;28;20346;-78
2023/03/08 11:28:53;;;;;;;9.57;4.55;;;;;;;17.28;48.76;100126.56;4924577;28;20425;-79
2023/03/08 11:31:30;;;;;;;8.65;5.80;;;;;;;17.13;48.90;100128.44;4943505;28;20489;-80
2023/03/08 11:34:23;;;;;;;7.43;5.13;;;;;;;16.66;49.66;100105.63;4933429;28;20058;-79
2023/03/08 11:37:27;;;;;;;10.57;5.93;;;;;;;16.17;51.72;100123.13;4943368;28;20061;-80
2023/03/08 11:40:17;;;;;;;7.15;5.45;;;;;;;16.11;51.36;100081.03;4938379;28;20047;-79
2023/03/08 11:43:06;;;;;;;11.30;5.32;;;;;;;16.65;50.35;100115.53;4953220;28;20058;-81
2023/03/08 11:46:00;;;;;;;8.15;6.13;;;;;;;16.33;50.90;100107.88;4953513;28;20057;-79
2023/03/08 11:48:59;;;;;;;7.50;5.03;;;;;;;16.02;51.39;100101.72;4950053;28;20300;-80
2023/03/08 11:52:07;;;;;;;9.93;6.00;;;;;;;15.98;52.42;100119.16;4951372;28;20488;-80
2023/03/08 11:54:44;;;;;;;7.35;5.30;;;;;;;15.20;52.28;99994.66;4907640;29;20547;-80
2023/03/08 11:57:16;;;;;;;8.65;4.97;;;;;;;15.97;52.04;100106.78;4919874;28;20043;-79
2023/03/08 12:00:08;;;;;;;5.45;4.60;;;;;;;15.95;51.41;100106.16;4959682;28;20152;-79
2023/03/08 12:02:45;;;;;;;8.38;4.95;;;;;;;15.88;51.70;100107.88;4947832;28;20058;-80
2023/03/08 12:05:55;;;;;;;9.00;4.80;;;;;;;16.04;51.74;100106.88;4951692;28;20101;-80
2023/03/08 12:09:11;;;;;;;12.55;5.70;;;;;;;15.75;51.96;100113.88;4911166;28;20054;-80